IZO weather

Izumo Airport
Izumo, Shimane Prefecture, Japan

Public forecast

Using degrees Celsius for public forecast. Weather courtesy of forecast.io.

Current aviation weather report (METAR) for Izumo Airport

Retrieved 2019/12/10 10:00 UTC (46 minutes ago):

RJOC 101000Z 17007KT 9999 FEW050 BKN/// 10/06 Q1020

Aviation forecast (TAF) for Izumo Airport

Retrieved 2019/12/10 06:30 UTC (4 hours ago):

TAF RJOC 100505Z 1006/1112 25008KT 9999 FEW030